sensor_id;sensor_type;location;lat;lon;timestamp;P1;durP1;ratioP1;P2;durP2;ratioP2
64641;SDS011;59936;51.490;5.436;2023-06-22T00:05:02;5.90;;;5.30;;
64641;SDS011;59936;51.490;5.436;2023-06-22T00:07:32;7.80;;;5.30;;
64641;SDS011;59936;51.490;5.436;2023-06-22T00:10:00;6.40;;;5.40;;
64641;SDS011;59936;51.490;5.436;2023-06-22T00:12:29;6.90;;;6.00;;
64641;SDS011;59936;51.490;5.436;2023-06-22T00:14:57;6.10;;;5.40;;
64641;SDS011;59936;51.490;5.436;2023-06-22T00:17:26;6.60;;;5.10;;
64641;SDS011;59936;51.490;5.436;2023-06-22T00:19:55;6.00;;;5.40;;
64641;SDS011;59936;51.490;5.436;2023-06-22T00:22:23;6.00;;;5.00;;
64641;SDS011;59936;51.490;5.436;2023-06-22T00:24:52;7.60;;;5.90;;
64641;SDS011;59936;51.490;5.436;2023-06-22T00:27:20;6.30;;;5.60;;
64641;SDS011;59936;51.490;5.436;2023-06-22T00:29:49;6.30;;;5.70;;
64641;SDS011;59936;51.490;5.436;2023-06-22T00:32:18;6.80;;;6.10;;
64641;SDS011;59936;51.490;5.436;2023-06-22T00:34:46;7.00;;;5.80;;
64641;SDS011;59936;51.490;5.436;2023-06-22T00:37:15;10.90;;;6.10;;
64641;SDS011;59936;51.490;5.436;2023-06-22T00:39:43;6.40;;;5.80;;
64641;SDS011;59936;51.490;5.436;2023-06-22T00:42:12;7.60;;;6.80;;
64641;SDS011;59936;51.490;5.436;2023-06-22T00:44:41;8.60;;;7.70;;
64641;SDS011;59936;51.490;5.436;2023-06-22T00:47:09;8.10;;;6.50;;
64641;SDS011;59936;51.490;5.436;2023-06-22T00:49:38;12.90;;;7.50;;
64641;SDS011;59936;51.490;5.436;2023-06-22T00:52:07;8.60;;;7.60;;
64641;SDS011;59936;51.490;5.436;2023-06-22T00:54:37;8.40;;;7.40;;
64641;SDS011;59936;51.490;5.436;2023-06-22T00:57:05;8.10;;;7.10;;
64641;SDS011;59936;51.490;5.436;2023-06-22T00:59:34;12.00;;;8.10;;
64641;SDS011;59936;51.490;5.436;2023-06-22T01:02:03;9.60;;;8.60;;
64641;SDS011;59936;51.490;5.436;2023-06-22T01:04:34;15.40;;;9.10;;
64641;SDS011;59936;51.490;5.436;2023-06-22T01:07:17;9.30;;;8.10;;
64641;SDS011;59936;51.490;5.436;2023-06-22T01:13:07;14.80;;;8.90;;
64641;SDS011;59936;51.490;5.436;2023-06-22T01:19:00;10.50;;;9.40;;
64641;SDS011;59936;51.490;5.436;2023-06-22T01:21:48;10.30;;;8.90;;
64641;SDS011;59936;51.490;5.436;2023-06-22T01:24:22;10.90;;;9.70;;
64641;SDS011;59936;51.490;5.436;2023-06-22T01:27:00;11.60;;;9.70;;
64641;SDS011;59936;51.490;5.436;2023-06-22T01:29:57;12.70;;;10.30;;
64641;SDS011;59936;51.490;5.436;2023-06-22T01:32:29;12.20;;;10.50;;
64641;SDS011;59936;51.490;5.436;2023-06-22T01:35:00;11.50;;;9.70;;
64641;SDS011;59936;51.490;5.436;2023-06-22T01:37:34;10.30;;;9.30;;
64641;SDS011;59936;51.490;5.436;2023-06-22T01:40:07;12.90;;;9.50;;
64641;SDS011;59936;51.490;5.436;2023-06-22T01:42:37;13.50;;;10.90;;
64641;SDS011;59936;51.490;5.436;2023-06-22T01:45:07;15.10;;;11.10;;
64641;SDS011;59936;51.490;5.436;2023-06-22T01:47:37;11.90;;;10.50;;
64641;SDS011;59936;51.490;5.436;2023-06-22T01:50:09;14.00;;;10.90;;
64641;SDS011;59936;51.490;5.436;2023-06-22T01:52:40;14.30;;;11.70;;
64641;SDS011;59936;51.490;5.436;2023-06-22T01:55:08;13.20;;;11.80;;
64641;SDS011;59936;51.490;5.436;2023-06-22T01:57:37;14.80;;;12.80;;
64641;SDS011;59936;51.490;5.436;2023-06-22T02:00:08;19.10;;;12.60;;
64641;SDS011;59936;51.490;5.436;2023-06-22T02:03:47;13.50;;;12.10;;
64641;SDS011;59936;51.490;5.436;2023-06-22T02:05:52;14.90;;;11.60;;
64641;SDS011;59936;51.490;5.436;2023-06-22T02:08:46;15.30;;;13.00;;
64641;SDS011;59936;51.490;5.436;2023-06-22T02:11:20;19.90;;;13.40;;
64641;SDS011;59936;51.490;5.436;2023-06-22T02:13:50;15.10;;;13.60;;
64641;SDS011;59936;51.490;5.436;2023-06-22T02:16:20;16.30;;;13.40;;
64641;SDS011;59936;51.490;5.436;2023-06-22T02:18:50;15.50;;;13.10;;
64641;SDS011;59936;51.490;5.436;2023-06-22T02:21:20;18.40;;;12.80;;
64641;SDS011;59936;51.490;5.436;2023-06-22T02:23:49;15.60;;;12.70;;
64641;SDS011;59936;51.490;5.436;2023-06-22T02:26:18;18.00;;;15.30;;
64641;SDS011;59936;51.490;5.436;2023-06-22T02:28:46;15.50;;;13.90;;
64641;SDS011;59936;51.490;5.436;2023-06-22T02:31:15;13.80;;;12.10;;
64641;SDS011;59936;51.490;5.436;2023-06-22T02:33:43;16.60;;;14.90;;
64641;SDS011;59936;51.490;5.436;2023-06-22T02:36:12;16.70;;;13.90;;
64641;SDS011;59936;51.490;5.436;2023-06-22T02:38:41;16.60;;;13.90;;
64641;SDS011;59936;51.490;5.436;2023-06-22T02:41:10;16.30;;;14.60;;
64641;SDS011;59936;51.490;5.436;2023-06-22T02:43:38;17.10;;;14.50;;
64641;SDS011;59936;51.490;5.436;2023-06-22T02:46:07;17.10;;;14.20;;
64641;SDS011;59936;51.490;5.436;2023-06-22T02:48:35;18.60;;;14.60;;
64641;SDS011;59936;51.490;5.436;2023-06-22T02:51:04;17.90;;;15.20;;
64641;SDS011;59936;51.490;5.436;2023-06-22T02:53:32;19.80;;;17.20;;
64641;SDS011;59936;51.490;5.436;2023-06-22T02:56:02;23.20;;;17.60;;
64641;SDS011;59936;51.490;5.436;2023-06-22T02:58:31;17.60;;;15.50;;
64641;SDS011;59936;51.490;5.436;2023-06-22T03:01:00;20.40;;;17.00;;
64641;SDS011;59936;51.490;5.436;2023-06-22T03:03:29;20.10;;;17.20;;
64641;SDS011;59936;51.490;5.436;2023-06-22T03:05:57;20.50;;;16.40;;
64641;SDS011;59936;51.490;5.436;2023-06-22T03:08:26;21.20;;;16.40;;
64641;SDS011;59936;51.490;5.436;2023-06-22T03:10:55;22.90;;;17.70;;
64641;SDS011;59936;51.490;5.436;2023-06-22T03:13:24;19.10;;;17.10;;
64641;SDS011;59936;51.490;5.436;2023-06-22T03:15:53;22.10;;;18.20;;
64641;SDS011;59936;51.490;5.436;2023-06-22T03:18:21;18.30;;;16.30;;
64641;SDS011;59936;51.490;5.436;2023-06-22T03:20:50;19.05;;;17.00;;
64641;SDS011;59936;51.490;5.436;2023-06-22T03:23:19;17.90;;;16.00;;
64641;SDS011;59936;51.490;5.436;2023-06-22T03:25:47;20.60;;;16.20;;
64641;SDS011;59936;51.490;5.436;2023-06-22T03:28:16;18.50;;;16.30;;
64641;SDS011;59936;51.490;5.436;2023-06-22T03:30:44;20.10;;;16.70;;
64641;SDS011;59936;51.490;5.436;2023-06-22T03:33:13;20.20;;;18.10;;
64641;SDS011;59936;51.490;5.436;2023-06-22T03:35:42;20.00;;;17.50;;
64641;SDS011;59936;51.490;5.436;2023-06-22T03:38:10;21.90;;;17.60;;
64641;SDS011;59936;51.490;5.436;2023-06-22T03:40:39;20.20;;;17.60;;
64641;SDS011;59936;51.490;5.436;2023-06-22T03:43:07;23.10;;;18.40;;
64641;SDS011;59936;51.490;5.436;2023-06-22T03:45:36;20.20;;;18.10;;
64641;SDS011;59936;51.490;5.436;2023-06-22T03:48:04;20.10;;;18.00;;
64641;SDS011;59936;51.490;5.436;2023-06-22T03:50:33;21.70;;;18.10;;
64641;SDS011;59936;51.490;5.436;2023-06-22T03:53:02;25.80;;;19.00;;
64641;SDS011;59936;51.490;5.436;2023-06-22T03:55:30;23.70;;;19.30;;
64641;SDS011;59936;51.490;5.436;2023-06-22T03:57:59;22.40;;;19.00;;
64641;SDS011;59936;51.490;5.436;2023-06-22T04:00:28;20.00;;;16.90;;
64641;SDS011;59936;51.490;5.436;2023-06-22T04:02:56;18.00;;;16.10;;
64641;SDS011;59936;51.490;5.436;2023-06-22T04:05:25;20.30;;;16.90;;
64641;SDS011;59936;51.490;5.436;2023-06-22T04:07:53;23.50;;;17.80;;
64641;SDS011;59936;51.490;5.436;2023-06-22T04:10:22;20.40;;;16.80;;
64641;SDS011;59936;51.490;5.436;2023-06-22T04:12:50;18.20;;;16.30;;
64641;SDS011;59936;51.490;5.436;2023-06-22T04:15:19;21.50;;;16.40;;
64641;SDS011;59936;51.490;5.436;2023-06-22T04:17:48;20.60;;;17.00;;
64641;SDS011;59936;51.490;5.436;2023-06-22T04:20:16;21.80;;;17.00;;
64641;SDS011;59936;51.490;5.436;2023-06-22T04:22:45;19.10;;;16.30;;
64641;SDS011;59936;51.490;5.436;2023-06-22T04:25:13;25.70;;;17.60;;
64641;SDS011;59936;51.490;5.436;2023-06-22T04:27:42;19.90;;;16.30;;
64641;SDS011;59936;51.490;5.436;2023-06-22T04:30:11;23.70;;;17.00;;
64641;SDS011;59936;51.490;5.436;2023-06-22T04:32:40;25.50;;;16.60;;
64641;SDS011;59936;51.490;5.436;2023-06-22T04:35:08;37.60;;;17.80;;
64641;SDS011;59936;51.490;5.436;2023-06-22T04:37:37;20.10;;;15.00;;
64641;SDS011;59936;51.490;5.436;2023-06-22T04:40:06;33.60;;;16.50;;
64641;SDS011;59936;51.490;5.436;2023-06-22T04:42:37;26.50;;;16.00;;
64641;SDS011;59936;51.490;5.436;2023-06-22T04:45:07;25.50;;;16.50;;
64641;SDS011;59936;51.490;5.436;2023-06-22T04:47:35;26.10;;;15.10;;
64641;SDS011;59936;51.490;5.436;2023-06-22T04:50:04;22.50;;;15.80;;
64641;SDS011;59936;51.490;5.436;2023-06-22T04:52:33;20.50;;;16.00;;
64641;SDS011;59936;51.490;5.436;2023-06-22T04:55:02;20.30;;;15.30;;
64641;SDS011;59936;51.490;5.436;2023-06-22T04:57:30;29.10;;;14.60;;
64641;SDS011;59936;51.490;5.436;2023-06-22T04:59:59;19.00;;;15.50;;
64641;SDS011;59936;51.490;5.436;2023-06-22T05:02:28;18.00;;;13.90;;
64641;SDS011;59936;51.490;5.436;2023-06-22T05:04:57;21.90;;;15.70;;
64641;SDS011;59936;51.490;5.436;2023-06-22T05:07:25;20.20;;;15.40;;
64641;SDS011;59936;51.490;5.436;2023-06-22T05:09:54;19.70;;;15.00;;
64641;SDS011;59936;51.490;5.436;2023-06-22T05:12:23;19.90;;;15.20;;
64641;SDS011;59936;51.490;5.436;2023-06-22T05:14:51;19.00;;;15.60;;
64641;SDS011;59936;51.490;5.436;2023-06-22T05:17:20;19.30;;;14.60;;
64641;SDS011;59936;51.490;5.436;2023-06-22T05:19:48;19.20;;;14.30;;
64641;SDS011;59936;51.490;5.436;2023-06-22T05:22:17;17.10;;;15.00;;
64641;SDS011;59936;51.490;5.436;2023-06-22T05:24:46;18.70;;;14.60;;
64641;SDS011;59936;51.490;5.436;2023-06-22T05:27:15;18.20;;;15.20;;
64641;SDS011;59936;51.490;5.436;2023-06-22T05:29:43;19.70;;;15.30;;
64641;SDS011;59936;51.490;5.436;2023-06-22T05:32:12;19.20;;;15.00;;
64641;SDS011;59936;51.490;5.436;2023-06-22T05:34:40;20.10;;;15.00;;
64641;SDS011;59936;51.490;5.436;2023-06-22T05:37:09;21.20;;;15.10;;
64641;SDS011;59936;51.490;5.436;2023-06-22T05:39:38;20.70;;;15.80;;
64641;SDS011;59936;51.490;5.436;2023-06-22T05:42:07;20.20;;;16.20;;
64641;SDS011;59936;51.490;5.436;2023-06-22T05:44:36;18.40;;;15.40;;
64641;SDS011;59936;51.490;5.436;2023-06-22T05:47:04;24.20;;;16.30;;
64641;SDS011;59936;51.490;5.436;2023-06-22T05:49:33;24.30;;;16.20;;
64641;SDS011;59936;51.490;5.436;2023-06-22T05:52:02;22.40;;;16.60;;
64641;SDS011;59936;51.490;5.436;2023-06-22T05:54:30;30.10;;;16.30;;
64641;SDS011;59936;51.490;5.436;2023-06-22T05:56:59;31.90;;;17.90;;
64641;SDS011;59936;51.490;5.436;2023-06-22T05:59:28;20.70;;;16.40;;
64641;SDS011;59936;51.490;5.436;2023-06-22T06:01:56;25.40;;;17.90;;
64641;SDS011;59936;51.490;5.436;2023-06-22T06:04:29;22.30;;;16.55;;
64641;SDS011;59936;51.490;5.436;2023-06-22T06:06:58;21.40;;;17.80;;
64641;SDS011;59936;51.490;5.436;2023-06-22T06:09:26;24.95;;;15.50;;
64641;SDS011;59936;51.490;5.436;2023-06-22T06:11:55;19.80;;;16.40;;
64641;SDS011;59936;51.490;5.436;2023-06-22T06:14:24;21.70;;;15.90;;
64641;SDS011;59936;51.490;5.436;2023-06-22T06:16:52;20.00;;;15.60;;
64641;SDS011;59936;51.490;5.436;2023-06-22T06:19:21;18.60;;;14.40;;
64641;SDS011;59936;51.490;5.436;2023-06-22T06:21:49;18.40;;;15.40;;
64641;SDS011;59936;51.490;5.436;2023-06-22T06:24:18;20.30;;;15.90;;
64641;SDS011;59936;51.490;5.436;2023-06-22T06:26:47;24.90;;;16.00;;
64641;SDS011;59936;51.490;5.436;2023-06-22T06:29:15;18.70;;;15.90;;
64641;SDS011;59936;51.490;5.436;2023-06-22T06:31:44;15.90;;;14.20;;
64641;SDS011;59936;51.490;5.436;2023-06-22T06:34:12;22.50;;;15.90;;
64641;SDS011;59936;51.490;5.436;2023-06-22T06:36:41;18.90;;;14.30;;
64641;SDS011;59936;51.490;5.436;2023-06-22T06:39:10;18.90;;;15.20;;
64641;SDS011;59936;51.490;5.436;2023-06-22T06:41:38;16.50;;;14.90;;
64641;SDS011;59936;51.490;5.436;2023-06-22T06:44:07;19.10;;;17.00;;
64641;SDS011;59936;51.490;5.436;2023-06-22T06:46:35;19.10;;;16.50;;
64641;SDS011;59936;51.490;5.436;2023-06-22T06:49:04;21.10;;;18.60;;
64641;SDS011;59936;51.490;5.436;2023-06-22T06:51:33;19.40;;;16.40;;
64641;SDS011;59936;51.490;5.436;2023-06-22T06:54:01;20.30;;;14.40;;
64641;SDS011;59936;51.490;5.436;2023-06-22T06:56:30;20.40;;;17.00;;
64641;SDS011;59936;51.490;5.436;2023-06-22T06:58:59;18.40;;;16.50;;
64641;SDS011;59936;51.490;5.436;2023-06-22T07:01:27;24.70;;;18.50;;
64641;SDS011;59936;51.490;5.436;2023-06-22T07:03:56;18.50;;;16.40;;
64641;SDS011;59936;51.490;5.436;2023-06-22T07:06:24;19.80;;;17.40;;
64641;SDS011;59936;51.490;5.436;2023-06-22T07:08:53;19.95;;;17.80;;
64641;SDS011;59936;51.490;5.436;2023-06-22T07:11:21;20.50;;;17.90;;
64641;SDS011;59936;51.490;5.436;2023-06-22T07:13:50;20.70;;;17.50;;
64641;SDS011;59936;51.490;5.436;2023-06-22T07:16:19;26.80;;;18.30;;
64641;SDS011;59936;51.490;5.436;2023-06-22T07:18:47;26.05;;;18.95;;
64641;SDS011;59936;51.490;5.436;2023-06-22T07:21:16;24.20;;;18.30;;
64641;SDS011;59936;51.490;5.436;2023-06-22T07:23:44;23.20;;;18.20;;
64641;SDS011;59936;51.490;5.436;2023-06-22T07:26:13;21.75;;;17.90;;
64641;SDS011;59936;51.490;5.436;2023-06-22T07:28:41;22.20;;;18.40;;
64641;SDS011;59936;51.490;5.436;2023-06-22T07:31:10;22.70;;;18.10;;
64641;SDS011;59936;51.490;5.436;2023-06-22T07:33:39;21.90;;;17.30;;
64641;SDS011;59936;51.490;5.436;2023-06-22T07:36:07;20.80;;;18.60;;
64641;SDS011;59936;51.490;5.436;2023-06-22T07:38:36;20.20;;;18.10;;
64641;SDS011;59936;51.490;5.436;2023-06-22T07:41:04;19.70;;;17.70;;
64641;SDS011;59936;51.490;5.436;2023-06-22T07:43:33;23.80;;;17.40;;
64641;SDS011;59936;51.490;5.436;2023-06-22T07:46:07;19.80;;;17.27;;
64641;SDS011;59936;51.490;5.436;2023-06-22T07:48:37;19.70;;;17.60;;
64641;SDS011;59936;51.490;5.436;2023-06-22T07:51:06;19.10;;;17.10;;
64641;SDS011;59936;51.490;5.436;2023-06-22T07:53:34;23.30;;;18.40;;
64641;SDS011;59936;51.490;5.436;2023-06-22T07:56:03;20.10;;;18.00;;
64641;SDS011;59936;51.490;5.436;2023-06-22T07:58:32;21.60;;;18.20;;
64641;SDS011;59936;51.490;5.436;2023-06-22T08:01:01;21.20;;;18.00;;
64641;SDS011;59936;51.490;5.436;2023-06-22T08:03:29;21.50;;;19.30;;
64641;SDS011;59936;51.490;5.436;2023-06-22T08:05:58;26.10;;;20.20;;
64641;SDS011;59936;51.490;5.436;2023-06-22T08:08:26;26.40;;;20.30;;
64641;SDS011;59936;51.490;5.436;2023-06-22T08:10:55;19.60;;;17.50;;
64641;SDS011;59936;51.490;5.436;2023-06-22T08:13:24;22.20;;;18.90;;
64641;SDS011;59936;51.490;5.436;2023-06-22T08:15:52;18.70;;;16.80;;
64641;SDS011;59936;51.490;5.436;2023-06-22T08:18:21;21.50;;;19.30;;
64641;SDS011;59936;51.490;5.436;2023-06-22T08:20:49;20.50;;;18.50;;
64641;SDS011;59936;51.490;5.436;2023-06-22T08:23:18;20.30;;;18.10;;
64641;SDS011;59936;51.490;5.436;2023-06-22T08:25:46;20.00;;;17.60;;
64641;SDS011;59936;51.490;5.436;2023-06-22T08:28:15;20.10;;;18.00;;
64641;SDS011;59936;51.490;5.436;2023-06-22T08:30:44;20.55;;;18.55;;
64641;SDS011;59936;51.490;5.436;2023-06-22T08:33:12;19.85;;;17.75;;
64641;SDS011;59936;51.490;5.436;2023-06-22T08:35:41;21.20;;;18.90;;
64641;SDS011;59936;51.490;5.436;2023-06-22T08:38:10;23.60;;;17.80;;
64641;SDS011;59936;51.490;5.436;2023-06-22T08:40:38;19.50;;;17.40;;
64641;SDS011;59936;51.490;5.436;2023-06-22T08:43:07;23.90;;;17.80;;
64641;SDS011;59936;51.490;5.436;2023-06-22T08:45:35;24.10;;;18.10;;
64641;SDS011;59936;51.490;5.436;2023-06-22T08:48:04;20.90;;;16.55;;
64641;SDS011;59936;51.490;5.436;2023-06-22T08:50:33;19.60;;;16.10;;
64641;SDS011;59936;51.490;5.436;2023-06-22T08:53:01;18.30;;;15.50;;
64641;SDS011;59936;51.490;5.436;2023-06-22T08:55:30;17.70;;;15.70;;
64641;SDS011;59936;51.490;5.436;2023-06-22T08:57:59;18.00;;;15.40;;
64641;SDS011;59936;51.490;5.436;2023-06-22T09:00:27;18.10;;;15.00;;
64641;SDS011;59936;51.490;5.436;2023-06-22T09:02:56;15.70;;;14.20;;
64641;SDS011;59936;51.490;5.436;2023-06-22T09:05:24;18.00;;;14.30;;
64641;SDS011;59936;51.490;5.436;2023-06-22T09:07:53;16.85;;;15.15;;
64641;SDS011;59936;51.490;5.436;2023-06-22T09:10:24;17.10;;;15.30;;
64641;SDS011;59936;51.490;5.436;2023-06-22T09:12:53;14.30;;;12.80;;
64641;SDS011;59936;51.490;5.436;2023-06-22T09:15:22;20.10;;;15.10;;
64641;SDS011;59936;51.490;5.436;2023-06-22T09:17:50;17.40;;;14.00;;
64641;SDS011;59936;51.490;5.436;2023-06-22T09:20:19;18.70;;;12.60;;
64641;SDS011;59936;51.490;5.436;2023-06-22T09:22:48;17.50;;;12.80;;
64641;SDS011;59936;51.490;5.436;2023-06-22T09:25:16;14.20;;;11.60;;
64641;SDS011;59936;51.490;5.436;2023-06-22T09:27:45;18.10;;;13.50;;
64641;SDS011;59936;51.490;5.436;2023-06-22T09:30:15;15.90;;;12.10;;
64641;SDS011;59936;51.490;5.436;2023-06-22T09:32:43;14.70;;;13.00;;
64641;SDS011;59936;51.490;5.436;2023-06-22T09:35:12;15.30;;;12.70;;
64641;SDS011;59936;51.490;5.436;2023-06-22T09:37:41;15.10;;;11.50;;
64641;SDS011;59936;51.490;5.436;2023-06-22T09:40:10;13.60;;;12.30;;
64641;SDS011;59936;51.490;5.436;2023-06-22T09:42:39;12.70;;;10.90;;
64641;SDS011;59936;51.490;5.436;2023-06-22T09:45:07;13.20;;;11.20;;
64641;SDS011;59936;51.490;5.436;2023-06-22T09:47:37;11.80;;;10.50;;
64641;SDS011;59936;51.490;5.436;2023-06-22T09:50:10;14.20;;;11.00;;
64641;SDS011;59936;51.490;5.436;2023-06-22T09:52:38;15.60;;;10.70;;
64641;SDS011;59936;51.490;5.436;2023-06-22T09:55:07;14.20;;;10.50;;
64641;SDS011;59936;51.490;5.436;2023-06-22T09:57:36;15.00;;;11.40;;
64641;SDS011;59936;51.490;5.436;2023-06-22T10:00:05;12.10;;;10.80;;
64641;SDS011;59936;51.490;5.436;2023-06-22T10:02:35;13.80;;;9.90;;
64641;SDS011;59936;51.490;5.436;2023-06-22T10:05:03;15.00;;;9.70;;
64641;SDS011;59936;51.490;5.436;2023-06-22T10:07:32;17.10;;;10.90;;
64641;SDS011;59936;51.490;5.436;2023-06-22T10:10:01;12.60;;;11.00;;
64641;SDS011;59936;51.490;5.436;2023-06-22T10:12:29;17.20;;;10.60;;
64641;SDS011;59936;51.490;5.436;2023-06-22T10:14:58;17.20;;;10.30;;
64641;SDS011;59936;51.490;5.436;2023-06-22T10:17:26;14.40;;;9.80;;
64641;SDS011;59936;51.490;5.436;2023-06-22T10:19:55;15.70;;;10.80;;
64641;SDS011;59936;51.490;5.436;2023-06-22T10:22:23;14.75;;;11.20;;
64641;SDS011;59936;51.490;5.436;2023-06-22T10:24:55;15.20;;;10.82;;
64641;SDS011;59936;51.490;5.436;2023-06-22T10:27:24;11.65;;;10.50;;
64641;SDS011;59936;51.490;5.436;2023-06-22T10:29:52;11.30;;;10.30;;
64641;SDS011;59936;51.490;5.436;2023-06-22T10:32:21;11.70;;;10.30;;
64641;SDS011;59936;51.490;5.436;2023-06-22T10:34:49;10.70;;;9.60;;
64641;SDS011;59936;51.490;5.436;2023-06-22T10:37:18;13.70;;;10.90;;
64641;SDS011;59936;51.490;5.436;2023-06-22T10:39:46;12.20;;;10.30;;
64641;SDS011;59936;51.490;5.436;2023-06-22T10:42:15;11.80;;;10.60;;
64641;SDS011;59936;51.490;5.436;2023-06-22T10:44:44;11.80;;;10.60;;
64641;SDS011;59936;51.490;5.436;2023-06-22T10:47:12;13.20;;;11.30;;
64641;SDS011;59936;51.490;5.436;2023-06-22T10:49:41;12.70;;;11.30;;
64641;SDS011;59936;51.490;5.436;2023-06-22T10:52:10;13.70;;;12.40;;
64641;SDS011;59936;51.490;5.436;2023-06-22T10:54:38;19.20;;;13.70;;
64641;SDS011;59936;51.490;5.436;2023-06-22T10:57:07;15.20;;;13.50;;
64641;SDS011;59936;51.490;5.436;2023-06-22T10:59:35;18.70;;;14.50;;
64641;SDS011;59936;51.490;5.436;2023-06-22T11:02:04;18.20;;;16.20;;
64641;SDS011;59936;51.490;5.436;2023-06-22T11:04:33;26.00;;;18.95;;
64641;SDS011;59936;51.490;5.436;2023-06-22T11:07:02;24.70;;;18.40;;
64641;SDS011;59936;51.490;5.436;2023-06-22T11:09:30;27.40;;;20.50;;
64641;SDS011;59936;51.490;5.436;2023-06-22T11:11:59;33.60;;;20.20;;
64641;SDS011;59936;51.490;5.436;2023-06-22T11:14:27;23.20;;;20.80;;
64641;SDS011;59936;51.490;5.436;2023-06-22T11:16:56;23.70;;;21.20;;
64641;SDS011;59936;51.490;5.436;2023-06-22T11:19:25;28.00;;;23.00;;
64641;SDS011;59936;51.490;5.436;2023-06-22T11:21:53;25.60;;;22.80;;
64641;SDS011;59936;51.490;5.436;2023-06-22T11:24:22;30.30;;;25.70;;
64641;SDS011;59936;51.490;5.436;2023-06-22T11:26:50;29.30;;;24.10;;
64641;SDS011;59936;51.490;5.436;2023-06-22T11:29:19;33.20;;;24.40;;
64641;SDS011;59936;51.490;5.436;2023-06-22T11:31:48;37.20;;;29.70;;
64641;SDS011;59936;51.490;5.436;2023-06-22T11:34:16;37.50;;;27.00;;
64641;SDS011;59936;51.490;5.436;2023-06-22T11:36:45;38.30;;;29.30;;
64641;SDS011;59936;51.490;5.436;2023-06-22T11:39:14;37.80;;;31.70;;
64641;SDS011;59936;51.490;5.436;2023-06-22T11:41:42;43.15;;;31.60;;
64641;SDS011;59936;51.490;5.436;2023-06-22T11:44:16;40.70;;;30.60;;
64641;SDS011;59936;51.490;5.436;2023-06-22T11:46:51;51.10;;;36.10;;
64641;SDS011;59936;51.490;5.436;2023-06-22T11:49:20;51.95;;;36.85;;
64641;SDS011;59936;51.490;5.436;2023-06-22T11:51:54;59.20;;;38.38;;
64641;SDS011;59936;51.490;5.436;2023-06-22T11:54:27;60.70;;;37.70;;
64641;SDS011;59936;51.490;5.436;2023-06-22T11:56:55;60.50;;;36.70;;
64641;SDS011;59936;51.490;5.436;2023-06-22T11:59:24;50.90;;;36.90;;
64641;SDS011;59936;51.490;5.436;2023-06-22T12:01:53;55.60;;;42.40;;
64641;SDS011;59936;51.490;5.436;2023-06-22T12:04:21;56.30;;;40.00;;
64641;SDS011;59936;51.490;5.436;2023-06-22T12:06:50;61.40;;;44.40;;
64641;SDS011;59936;51.490;5.436;2023-06-22T12:09:18;75.40;;;47.50;;
64641;SDS011;59936;51.490;5.436;2023-06-22T12:11:47;72.70;;;44.30;;
64641;SDS011;59936;51.490;5.436;2023-06-22T12:14:16;68.70;;;47.90;;
64641;SDS011;59936;51.490;5.436;2023-06-22T12:16:49;59.70;;;42.60;;
64641;SDS011;59936;51.490;5.436;2023-06-22T12:19:17;61.70;;;42.90;;
64641;SDS011;59936;51.490;5.436;2023-06-22T12:21:46;70.00;;;46.00;;
64641;SDS011;59936;51.490;5.436;2023-06-22T12:24:15;69.10;;;47.90;;
64641;SDS011;59936;51.490;5.436;2023-06-22T12:26:43;67.60;;;46.20;;
64641;SDS011;59936;51.490;5.436;2023-06-22T12:29:12;67.50;;;47.65;;
64641;SDS011;59936;51.490;5.436;2023-06-22T12:31:40;41.90;;;34.30;;
64641;SDS011;59936;51.490;5.436;2023-06-22T12:34:09;48.80;;;38.50;;
64641;SDS011;59936;51.490;5.436;2023-06-22T12:36:37;43.10;;;34.60;;
64641;SDS011;59936;51.490;5.436;2023-06-22T12:39:06;48.30;;;35.60;;
64641;SDS011;59936;51.490;5.436;2023-06-22T12:41:35;37.60;;;32.20;;
64641;SDS011;59936;51.490;5.436;2023-06-22T12:44:03;35.50;;;31.60;;
64641;SDS011;59936;51.490;5.436;2023-06-22T12:46:32;32.60;;;27.40;;
64641;SDS011;59936;51.490;5.436;2023-06-22T12:49:00;40.50;;;32.30;;
64641;SDS011;59936;51.490;5.436;2023-06-22T12:51:29;39.15;;;30.10;;
64641;SDS011;59936;51.490;5.436;2023-06-22T12:53:58;41.10;;;32.90;;
64641;SDS011;59936;51.490;5.436;2023-06-22T12:56:27;38.80;;;31.10;;
64641;SDS011;59936;51.490;5.436;2023-06-22T12:58:55;44.90;;;32.40;;
64641;SDS011;59936;51.490;5.436;2023-06-22T13:01:24;39.50;;;32.70;;
64641;SDS011;59936;51.490;5.436;2023-06-22T13:03:53;43.30;;;32.40;;
64641;SDS011;59936;51.490;5.436;2023-06-22T13:06:21;41.20;;;33.00;;
64641;SDS011;59936;51.490;5.436;2023-06-22T13:08:54;37.90;;;30.80;;
64641;SDS011;59936;51.490;5.436;2023-06-22T13:11:23;42.50;;;32.75;;
64641;SDS011;59936;51.490;5.436;2023-06-22T13:13:51;44.50;;;32.50;;
64641;SDS011;59936;51.490;5.436;2023-06-22T13:16:20;36.20;;;30.20;;
64641;SDS011;59936;51.490;5.436;2023-06-22T13:18:48;38.20;;;31.40;;
64641;SDS011;59936;51.490;5.436;2023-06-22T13:21:17;36.90;;;31.10;;
64641;SDS011;59936;51.490;5.436;2023-06-22T13:23:45;34.80;;;27.20;;
64641;SDS011;59936;51.490;5.436;2023-06-22T13:26:16;34.60;;;29.00;;
64641;SDS011;59936;51.490;5.436;2023-06-22T13:28:45;30.00;;;23.70;;
64641;SDS011;59936;51.490;5.436;2023-06-22T13:31:13;31.40;;;25.40;;
64641;SDS011;59936;51.490;5.436;2023-06-22T13:33:42;31.80;;;24.50;;
64641;SDS011;59936;51.490;5.436;2023-06-22T13:36:11;29.80;;;26.40;;
64641;SDS011;59936;51.490;5.436;2023-06-22T13:38:39;29.50;;;24.60;;
64641;SDS011;59936;51.490;5.436;2023-06-22T13:41:08;26.40;;;23.70;;
64641;SDS011;59936;51.490;5.436;2023-06-22T13:43:36;26.80;;;23.30;;
64641;SDS011;59936;51.490;5.436;2023-06-22T13:46:05;29.50;;;26.30;;
64641;SDS011;59936;51.490;5.436;2023-06-22T13:48:33;28.20;;;24.30;;
64641;SDS011;59936;51.490;5.436;2023-06-22T13:51:02;24.50;;;21.25;;
64641;SDS011;59936;51.490;5.436;2023-06-22T13:53:31;31.50;;;23.60;;
64641;SDS011;59936;51.490;5.436;2023-06-22T13:55:59;28.30;;;25.50;;
64641;SDS011;59936;51.490;5.436;2023-06-22T13:58:28;26.00;;;23.20;;
64641;SDS011;59936;51.490;5.436;2023-06-22T14:00:56;24.70;;;22.00;;
64641;SDS011;59936;51.490;5.436;2023-06-22T14:03:25;30.00;;;24.90;;
64641;SDS011;59936;51.490;5.436;2023-06-22T14:05:54;30.80;;;26.90;;
64641;SDS011;59936;51.490;5.436;2023-06-22T14:08:22;27.40;;;24.50;;
64641;SDS011;59936;51.490;5.436;2023-06-22T14:10:51;28.90;;;25.90;;
64641;SDS011;59936;51.490;5.436;2023-06-22T14:13:19;29.30;;;26.00;;
64641;SDS011;59936;51.490;5.436;2023-06-22T14:15:48;29.80;;;26.50;;
64641;SDS011;59936;51.490;5.436;2023-06-22T14:18:17;29.30;;;26.10;;
64641;SDS011;59936;51.490;5.436;2023-06-22T14:20:50;33.50;;;27.10;;
64641;SDS011;59936;51.490;5.436;2023-06-22T14:23:18;26.85;;;23.05;;
64641;SDS011;59936;51.490;5.436;2023-06-22T14:25:47;24.00;;;21.20;;
64641;SDS011;59936;51.490;5.436;2023-06-22T14:28:15;29.10;;;25.60;;
64641;SDS011;59936;51.490;5.436;2023-06-22T14:30:44;32.40;;;28.80;;
64641;SDS011;59936;51.490;5.436;2023-06-22T14:33:13;36.40;;;29.85;;
64641;SDS011;59936;51.490;5.436;2023-06-22T14:35:41;39.50;;;29.60;;
64641;SDS011;59936;51.490;5.436;2023-06-22T14:38:14;34.30;;;29.70;;
64641;SDS011;59936;51.490;5.436;2023-06-22T14:40:43;39.40;;;30.75;;
64641;SDS011;59936;51.490;5.436;2023-06-22T14:43:12;35.60;;;28.40;;
64641;SDS011;59936;51.490;5.436;2023-06-22T14:45:40;28.20;;;24.20;;